createdAt,value
2018-10-06T00:00:28.655Z,0
2018-10-06T00:01:29.173Z,0
2018-10-06T00:02:28.669Z,0
2018-10-06T00:03:29.132Z,0
2018-10-06T00:04:28.865Z,0
2018-10-06T00:05:28.849Z,0
2018-10-06T00:06:28.566Z,0
2018-10-06T00:07:28.820Z,0
2018-10-06T00:08:28.819Z,0
2018-10-06T00:09:28.262Z,0
2018-10-06T00:10:28.776Z,0
2018-10-06T00:11:29.025Z,0
2018-10-06T00:12:28.754Z,0
2018-10-06T00:13:28.467Z,0
2018-10-06T00:14:28.460Z,0
2018-10-06T00:15:28.469Z,0
2018-10-06T00:16:28.164Z,0
2018-10-06T00:17:28.146Z,0
2018-10-06T00:18:28.676Z,0
2018-10-06T00:19:28.383Z,0
2018-10-06T00:20:28.647Z,0
2018-10-06T00:21:28.618Z,0
2018-10-06T00:22:28.612Z,0
2018-10-06T00:23:28.321Z,0
2018-10-06T00:24:28.317Z,0
2018-10-06T00:25:28.574Z,0
2018-10-06T00:26:28.548Z,0
2018-10-06T00:27:28.283Z,0
2018-10-06T00:28:28.523Z,0
2018-10-06T00:29:28.504Z,0
2018-10-06T00:30:27.961Z,0
2018-10-06T00:31:27.947Z,0
2018-10-06T00:32:27.943Z,0
2018-10-06T00:33:28.183Z,0
2018-10-06T00:34:27.908Z,0
2018-10-06T00:35:28.413Z,0
2018-10-06T00:36:28.411Z,0
2018-10-06T00:37:28.402Z,0
2018-10-06T00:38:28.109Z,0
2018-10-06T00:39:28.110Z,0
2018-10-06T00:40:27.552Z,0
2018-10-06T00:41:28.061Z,0
2018-10-06T00:42:28.310Z,0
2018-10-06T00:43:28.044Z,0
2018-10-06T00:44:28.557Z,0
2018-10-06T00:45:27.475Z,0
2018-10-06T00:46:28.520Z,0
2018-10-06T00:47:28.177Z,0
2018-10-06T00:48:28.493Z,0
2018-10-06T00:49:27.943Z,0
2018-10-06T00:50:27.933Z,0
2018-10-06T00:51:28.186Z,0
2018-10-06T00:52:27.903Z,0
2018-10-06T00:53:28.156Z,0
2018-10-06T00:54:27.882Z,0
2018-10-06T00:55:27.600Z,0
2018-10-06T00:56:27.851Z,0
2018-10-06T00:57:28.093Z,0
2018-10-06T00:58:28.079Z,0
2018-10-06T00:59:28.066Z,0
2018-10-06T01:00:28.047Z,0
2018-10-06T01:01:27.508Z,0
2018-10-06T01:02:28.022Z,0
2018-10-06T01:03:28.004Z,0
2018-10-06T01:04:27.999Z,0
2018-10-06T01:05:27.977Z,0
2018-10-06T01:06:28.253Z,0
2018-10-06T01:07:27.424Z,0
2018-10-06T01:08:28.208Z,0
2018-10-06T01:09:28.188Z,0
2018-10-06T01:10:28.110Z,0
2018-10-06T01:11:27.633Z,0
2018-10-06T01:12:28.297Z,0
2018-10-06T01:13:28.126Z,0
2018-10-06T01:14:27.886Z,0
2018-10-06T01:15:27.861Z,0
2018-10-06T01:16:27.555Z,0
2018-10-06T01:17:27.805Z,0
2018-10-06T01:18:27.530Z,0
2018-10-06T01:19:27.250Z,0
2018-10-06T01:20:28.028Z,0
2018-10-06T01:21:27.491Z,0
2018-10-06T01:22:27.464Z,0
2018-10-06T01:23:27.709Z,0
2018-10-06T01:24:27.975Z,0
2018-10-06T01:25:27.425Z,0
2018-10-06T01:26:27.661Z,0
2018-10-06T01:27:27.403Z,0
2018-10-06T01:28:27.480Z,0
2018-10-06T01:29:27.630Z,0
2018-10-06T01:30:27.083Z,0
2018-10-06T01:31:27.606Z,0
2018-10-06T01:32:26.785Z,0
2018-10-06T01:33:27.301Z,0
2018-10-06T01:34:27.858Z,0
2018-10-06T01:35:27.008Z,0
2018-10-06T01:36:27.524Z,0
2018-10-06T01:37:26.980Z,0
2018-10-06T01:38:27.496Z,0
2018-10-06T01:39:27.497Z,0
2018-10-06T01:40:27.195Z,0
2018-10-06T01:41:27.710Z,0
2018-10-06T01:42:27.172Z,0
2018-10-06T01:43:27.244Z,0
2018-10-06T01:44:27.133Z,0
2018-10-06T01:45:27.122Z,0
2018-10-06T01:46:27.108Z,0
2018-10-06T01:47:27.621Z,0
2018-10-06T01:48:26.550Z,0
2018-10-06T01:49:27.401Z,0
2018-10-06T01:50:27.054Z,0
2018-10-06T01:51:27.559Z,0
2018-10-06T01:52:27.289Z,0
2018-10-06T01:53:26.999Z,0
2018-10-06T01:54:26.462Z,0
2018-10-06T01:55:27.234Z,0
2018-10-06T01:56:26.967Z,0
2018-10-06T01:57:27.210Z,0
2018-10-06T01:58:27.189Z,0
2018-10-06T01:59:26.648Z,0
2018-10-06T02:00:26.898Z,0
2018-10-06T02:01:27.199Z,0
2018-10-06T02:02:26.868Z,0
2018-10-06T02:03:27.112Z,0
2018-10-06T02:04:26.839Z,0
2018-10-06T02:05:26.842Z,0
2018-10-06T02:06:27.335Z,0
2018-10-06T02:07:27.312Z,0
2018-10-06T02:08:26.514Z,0
2018-10-06T02:09:26.232Z,0
2018-10-06T02:10:27.009Z,0
2018-10-06T02:11:26.737Z,0
2018-10-06T02:12:26.464Z,0
2018-10-06T02:13:26.970Z,0
2018-10-06T02:14:26.947Z,0
2018-10-06T02:15:27.207Z,0
2018-10-06T02:16:26.394Z,0
2018-10-06T02:17:26.637Z,0
2018-10-06T02:18:26.630Z,0
2018-10-06T02:19:26.623Z,0
2018-10-06T02:20:26.604Z,0
2018-10-06T02:21:26.859Z,0
2018-10-06T02:22:26.572Z,0
2018-10-06T02:23:26.559Z,0
2018-10-06T02:24:26.799Z,0
2018-10-06T02:25:26.786Z,0
2018-10-06T02:26:26.242Z,0
2018-10-06T02:27:26.761Z,0
2018-10-06T02:28:27.005Z,0
2018-10-06T02:29:26.723Z,0
2018-10-06T02:30:27.124Z,0
2018-10-06T02:31:26.435Z,0
2018-10-06T02:32:25.896Z,0
2018-10-06T02:33:26.675Z,0
2018-10-06T02:34:26.682Z,0
2018-10-06T02:35:25.845Z,0
2018-10-06T02:36:26.617Z,0
2018-10-06T02:37:26.340Z,0
2018-10-06T02:38:26.351Z,0
2018-10-06T02:39:26.843Z,0
2018-10-06T02:40:26.560Z,0
2018-10-06T02:41:26.557Z,0
2018-10-06T02:42:26.269Z,0
2018-10-06T02:43:26.520Z,0
2018-10-06T02:44:25.969Z,0
2018-10-06T02:45:26.216Z,0
2018-10-06T02:46:26.201Z,0
2018-10-06T02:47:26.461Z,0
2018-10-06T02:48:26.437Z,0
2018-10-06T02:49:26.161Z,0
2018-10-06T02:50:26.149Z,0
2018-10-06T02:51:26.676Z,0
2018-10-06T02:52:26.385Z,0
2018-10-06T02:53:26.617Z,0
2018-10-06T02:54:26.345Z,0
2018-10-06T02:55:26.070Z,0
2018-10-06T02:56:26.582Z,0
2018-10-06T02:57:26.326Z,0
2018-10-06T02:58:26.021Z,0
2018-10-06T02:59:26.275Z,0
2018-10-06T03:00:26.525Z,0
2018-10-06T03:01:26.236Z,0
2018-10-06T03:02:26.233Z,0
2018-10-06T03:03:25.952Z,0
2018-10-06T03:04:25.940Z,0
2018-10-06T03:05:25.914Z,0
2018-10-06T03:06:25.636Z,0
2018-10-06T03:07:26.155Z,0
2018-10-06T03:08:25.871Z,0
2018-10-06T03:09:26.122Z,0
2018-10-06T03:10:25.772Z,0
2018-10-06T03:11:25.557Z,0
2018-10-06T03:12:25.820Z,0
2018-10-06T03:13:26.324Z,0
2018-10-06T03:14:25.797Z,0
2018-10-06T03:15:25.500Z,0
2018-10-06T03:16:25.740Z,0
2018-10-06T03:17:25.728Z,0
2018-10-06T03:18:25.985Z,0
2018-10-06T03:19:25.962Z,0
2018-10-06T03:20:25.946Z,0
2018-10-06T03:21:25.935Z,0
2018-10-06T03:22:25.658Z,0
2018-10-06T03:23:26.172Z,0
2018-10-06T03:24:25.915Z,0
2018-10-06T03:25:26.147Z,0
2018-10-06T03:26:25.364Z,0
2018-10-06T03:27:25.859Z,0
2018-10-06T03:28:25.864Z,0
2018-10-06T03:29:25.569Z,0
2018-10-06T03:30:25.822Z,0
2018-10-06T03:31:26.075Z,0
2018-10-06T03:32:25.845Z,0
2018-10-06T03:33:25.807Z,0
2018-10-06T03:34:25.993Z,0
2018-10-06T03:35:25.731Z,0
2018-10-06T03:36:25.436Z,0
2018-10-06T03:37:25.180Z,0
2018-10-06T03:38:25.406Z,0
2018-10-06T03:39:25.681Z,0
2018-10-06T03:40:25.674Z,0
2018-10-06T03:41:25.643Z,0
2018-10-06T03:42:25.658Z,0
2018-10-06T03:43:25.063Z,0
2018-10-06T03:44:25.587Z,0
2018-10-06T03:45:25.044Z,0
2018-10-06T03:46:25.016Z,0
2018-10-06T03:47:25.797Z,0
2018-10-06T03:48:25.263Z,0
2018-10-06T03:49:25.802Z,0
2018-10-06T03:50:25.802Z,0
2018-10-06T03:51:25.311Z,0
2018-10-06T03:52:24.936Z,0
2018-10-06T03:53:25.188Z,0
2018-10-06T03:54:25.692Z,0
2018-10-06T03:55:25.685Z,0
2018-10-06T03:56:25.125Z,0
2018-10-06T03:57:25.194Z,0
2018-10-06T03:58:24.843Z,0
2018-10-06T03:59:25.362Z,0
2018-10-06T04:00:25.418Z,0
2018-10-06T04:01:25.374Z,0
2018-10-06T04:02:25.325Z,0
2018-10-06T04:03:25.297Z,0
2018-10-06T04:04:25.537Z,0
2018-10-06T04:05:25.266Z,0
2018-10-06T04:06:24.465Z,0
2018-10-06T04:07:25.234Z,0
2018-10-06T04:08:25.490Z,0
2018-10-06T04:09:25.195Z,0
2018-10-06T04:10:25.170Z,0
2018-10-06T04:11:25.427Z,0
2018-10-06T04:12:25.153Z,0
2018-10-06T04:13:24.340Z,0
2018-10-06T04:14:25.127Z,0
2018-10-06T04:15:25.102Z,0
2018-10-06T04:16:24.820Z,0
2018-10-06T04:17:24.564Z,0
2018-10-06T04:18:25.067Z,0
2018-10-06T04:19:25.039Z,0
2018-10-06T04:20:25.045Z,0
2018-10-06T04:21:24.758Z,0
2018-10-06T04:22:24.468Z,0
2018-10-06T04:23:24.456Z,0
2018-10-06T04:24:25.228Z,0
2018-10-06T04:25:24.731Z,0
2018-10-06T04:26:25.208Z,0
2018-10-06T04:27:24.925Z,0
2018-10-06T04:28:25.543Z,0
2018-10-06T04:29:24.639Z,0
2018-10-06T04:30:24.621Z,0
2018-10-06T04:31:24.602Z,0
2018-10-06T04:32:24.845Z,0
2018-10-06T04:33:25.083Z,0
2018-10-06T04:34:24.542Z,0
2018-10-06T04:35:24.280Z,0
2018-10-06T04:36:24.772Z,0
2018-10-06T04:37:24.246Z,0
2018-10-06T04:38:25.085Z,0
2018-10-06T04:39:25.004Z,0
2018-10-06T04:40:24.713Z,0
2018-10-06T04:41:24.440Z,0
2018-10-06T04:42:24.418Z,0
2018-10-06T04:43:24.678Z,0
2018-10-06T04:44:24.125Z,0
2018-10-06T04:45:24.736Z,0
2018-10-06T04:46:24.879Z,0
2018-10-06T04:47:24.343Z,0
2018-10-06T04:48:24.058Z,0
2018-10-06T04:49:24.577Z,0
2018-10-06T04:50:24.823Z,0
2018-10-06T04:51:24.541Z,0
2018-10-06T04:52:24.546Z,0
2018-10-06T04:53:25.095Z,0
2018-10-06T04:54:24.508Z,0
2018-10-06T04:55:24.482Z,0
2018-10-06T04:56:24.463Z,0
2018-10-06T04:57:24.182Z,0
2018-10-06T04:58:24.436Z,0
2018-10-06T04:59:23.896Z,0
2018-10-06T05:00:23.610Z,0
2018-10-06T05:01:24.157Z,0
2018-10-06T05:02:23.866Z,0
2018-10-06T05:03:24.622Z,0
2018-10-06T05:04:24.352Z,0
2018-10-06T05:05:24.061Z,0
2018-10-06T05:06:23.784Z,0
2018-10-06T05:07:24.034Z,0
2018-10-06T05:08:24.038Z,0
2018-10-06T05:09:24.542Z,0
2018-10-06T05:10:24.461Z,0
2018-10-06T05:11:23.704Z,0
2018-10-06T05:12:24.215Z,0
2018-10-06T05:13:23.945Z,0
2018-10-06T05:14:23.913Z,0
2018-10-06T05:15:23.907Z,0
2018-10-06T05:16:24.151Z,0
2018-10-06T05:17:24.200Z,0
2018-10-06T05:18:24.152Z,0
2018-10-06T05:19:23.839Z,0
2018-10-06T05:20:23.830Z,0
2018-10-06T05:21:24.351Z,0
2018-10-06T05:22:23.529Z,0
2018-10-06T05:23:23.887Z,0
2018-10-06T05:24:23.767Z,0
2018-10-06T05:25:24.034Z,0
2018-10-06T05:26:23.728Z,0
2018-10-06T05:27:23.727Z,0
2018-10-06T05:28:23.994Z,0
2018-10-06T05:29:23.719Z,0
2018-10-06T05:30:23.142Z,0
2018-10-06T05:31:23.677Z,0
2018-10-06T05:32:23.379Z,0
2018-10-06T05:33:23.889Z,0
2018-10-06T05:34:24.069Z,0
2018-10-06T05:35:23.063Z,0
2018-10-06T05:36:23.580Z,0
2018-10-06T05:37:24.086Z,0
2018-10-06T05:38:24.073Z,0
2018-10-06T05:39:24.062Z,0
2018-10-06T05:40:23.783Z,0
2018-10-06T05:41:23.501Z,0
2018-10-06T05:42:23.747Z,0
2018-10-06T05:43:23.729Z,5
2018-10-06T05:44:23.451Z,5
2018-10-06T05:45:23.171Z,5
2018-10-06T05:46:24.182Z,5
2018-10-06T05:47:22.879Z,5
2018-10-06T05:48:23.398Z,5
2018-10-06T05:49:23.377Z,5
2018-10-06T05:50:23.365Z,5
2018-10-06T05:51:23.339Z,5
2018-10-06T05:52:23.608Z,5
2018-10-06T05:53:23.302Z,5
2018-10-06T05:54:23.288Z,10
2018-10-06T05:55:23.543Z,10
2018-10-06T05:56:23.254Z,10
2018-10-06T05:57:23.824Z,10
2018-10-06T05:58:22.962Z,10
2018-10-06T05:59:23.618Z,10
2018-10-06T06:00:23.456Z,10
2018-10-06T06:01:23.447Z,10
2018-10-06T06:02:22.901Z,15
2018-10-06T06:03:23.406Z,15
2018-10-06T06:04:22.865Z,15
2018-10-06T06:05:23.383Z,15
2018-10-06T06:06:22.832Z,15
2018-10-06T06:07:23.100Z,15
2018-10-06T06:08:23.359Z,15
2018-10-06T06:09:23.223Z,15
2018-10-06T06:10:23.307Z,15
2018-10-06T06:11:23.021Z,15
2018-10-06T06:12:23.004Z,20
2018-10-06T06:13:23.514Z,20
2018-10-06T06:14:22.713Z,20
2018-10-06T06:15:22.951Z,20
2018-10-06T06:16:23.241Z,20
2018-10-06T06:17:22.929Z,20
2018-10-06T06:18:23.440Z,20
2018-10-06T06:19:22.636Z,20
2018-10-06T06:20:22.348Z,20
2018-10-06T06:21:23.136Z,20
2018-10-06T06:22:22.847Z,25
2018-10-06T06:23:22.563Z,25
2018-10-06T06:24:23.091Z,25
2018-10-06T06:25:22.807Z,25
2018-10-06T06:26:22.786Z,25
2018-10-06T06:27:23.035Z,25
2018-10-06T06:28:22.488Z,25
2018-10-06T06:29:23.025Z,25
2018-10-06T06:30:22.722Z,25
2018-10-06T06:31:23.641Z,25
2018-10-06T06:32:23.284Z,25
2018-10-06T06:33:22.687Z,25
2018-10-06T06:34:22.928Z,30
2018-10-06T06:35:22.398Z,30
2018-10-06T06:36:22.650Z,30
2018-10-06T06:37:22.617Z,30
2018-10-06T06:38:23.243Z,30
2018-10-06T06:39:22.597Z,30
2018-10-06T06:40:22.833Z,30
2018-10-06T06:41:22.825Z,30
2018-10-06T06:42:22.547Z,30
2018-10-06T06:43:22.533Z,30
2018-10-06T06:44:23.479Z,30
2018-10-06T06:45:22.850Z,35
2018-10-06T06:46:22.744Z,35
2018-10-06T06:47:22.472Z,35
2018-10-06T06:48:22.450Z,35
2018-10-06T06:49:22.161Z,35
2018-10-06T06:50:22.416Z,35
2018-10-06T06:51:22.663Z,35
2018-10-06T06:52:22.384Z,35
2018-10-06T06:53:22.111Z,35
2018-10-06T06:54:22.091Z,40
2018-10-06T06:55:22.662Z,40
2018-10-06T06:56:22.598Z,40
2018-10-06T06:57:22.308Z,40
2018-10-06T06:58:22.588Z,40
2018-10-06T06:59:22.553Z,40
2018-10-06T07:00:22.551Z,40
2018-10-06T07:01:22.786Z,40
2018-10-06T07:02:22.505Z,40
2018-10-06T07:03:22.219Z,40
2018-10-06T07:04:22.490Z,45
2018-10-06T07:05:22.467Z,45
2018-10-06T07:06:21.935Z,45
2018-10-06T07:07:21.892Z,45
2018-10-06T07:08:22.422Z,45
2018-10-06T07:09:22.137Z,45
2018-10-06T07:10:22.583Z,45
2018-10-06T07:11:21.846Z,45
2018-10-06T07:12:21.820Z,45
2018-10-06T07:13:22.080Z,45
2018-10-06T07:14:22.327Z,45
2018-10-06T07:15:22.053Z,45
2018-10-06T07:16:22.301Z,45
2018-10-06T07:17:22.293Z,45
2018-10-06T07:18:22.034Z,45
2018-10-06T07:19:21.720Z,45
2018-10-06T07:20:22.029Z,45
2018-10-06T07:21:22.220Z,45
2018-10-06T07:22:21.943Z,45
2018-10-06T07:23:22.473Z,45
2018-10-06T07:24:22.203Z,45
2018-10-06T07:25:22.060Z,45
2018-10-06T07:26:21.614Z,45
2018-10-06T07:27:21.602Z,45
2018-10-06T07:28:22.422Z,45
2018-10-06T07:29:21.847Z,45
2018-10-06T07:30:22.352Z,45
2018-10-06T07:31:21.820Z,45
2018-10-06T07:32:22.057Z,50
2018-10-06T07:33:22.066Z,50
2018-10-06T07:34:22.300Z,50
2018-10-06T07:35:22.035Z,50
2018-10-06T07:36:22.010Z,50
2018-10-06T07:37:21.721Z,50
2018-10-06T07:38:21.705Z,50
2018-10-06T07:39:22.224Z,50
2018-10-06T07:40:21.679Z,50
2018-10-06T07:41:21.672Z,50
2018-10-06T07:42:21.921Z,50
2018-10-06T07:43:21.912Z,50
2018-10-06T07:44:21.896Z,50
2018-10-06T07:45:21.609Z,50
2018-10-06T07:46:21.601Z,50
2018-10-06T07:47:21.854Z,50
2018-10-06T07:48:21.313Z,50
2018-10-06T07:49:21.290Z,50
2018-10-06T07:50:21.547Z,50
2018-10-06T07:51:21.535Z,50
2018-10-06T07:52:22.044Z,55
2018-10-06T07:53:22.091Z,55
2018-10-06T07:54:21.223Z,55
2018-10-06T07:55:21.749Z,55
2018-10-06T07:56:21.988Z,55
2018-10-06T07:57:21.711Z,55
2018-10-06T07:58:21.560Z,55
2018-10-06T07:59:21.800Z,55
2018-10-06T08:00:21.676Z,55
2018-10-06T08:01:21.659Z,175
2018-10-06T08:02:21.397Z,225
2018-10-06T08:03:21.101Z,100
2018-10-06T08:04:21.366Z,65
2018-10-06T08:05:21.338Z,60
2018-10-06T08:06:21.745Z,55
2018-10-06T08:07:20.799Z,55
2018-10-06T08:08:21.569Z,55
2018-10-06T08:09:21.552Z,55
2018-10-06T08:10:21.277Z,55
2018-10-06T08:11:21.792Z,55
2018-10-06T08:12:20.986Z,55
2018-10-06T08:13:21.499Z,55
2018-10-06T08:14:21.245Z,55
2018-10-06T08:15:21.496Z,55
2018-10-06T08:16:21.198Z,55
2018-10-06T08:17:20.662Z,55
2018-10-06T08:18:20.922Z,55
2018-10-06T08:19:21.437Z,60
2018-10-06T08:20:21.423Z,60
2018-10-06T08:21:21.409Z,60
2018-10-06T08:22:21.392Z,60
2018-10-06T08:23:20.910Z,60
2018-10-06T08:24:21.106Z,60
2018-10-06T08:25:20.813Z,60
2018-10-06T08:26:21.076Z,60
2018-10-06T08:27:21.061Z,60
2018-10-06T08:28:21.315Z,60
2018-10-06T08:29:21.317Z,60
2018-10-06T08:30:21.020Z,60
2018-10-06T08:31:21.539Z,60
2018-10-06T08:32:21.007Z,60
2018-10-06T08:33:21.268Z,60
2018-10-06T08:34:20.726Z,60
2018-10-06T08:35:21.237Z,60
2018-10-06T08:36:20.695Z,60
2018-10-06T08:37:20.679Z,60
2018-10-06T08:38:20.933Z,60
2018-10-06T08:39:20.923Z,60
2018-10-06T08:40:20.636Z,60
2018-10-06T08:41:20.889Z,60
2018-10-06T08:42:20.340Z,60
2018-10-06T08:43:20.865Z,60
2018-10-06T08:44:20.854Z,60
2018-10-06T08:45:21.104Z,60
2018-10-06T08:46:21.092Z,60
2018-10-06T08:47:20.822Z,65
2018-10-06T08:48:20.809Z,65
2018-10-06T08:49:20.526Z,65
2018-10-06T08:50:20.513Z,65
2018-10-06T08:51:21.045Z,65
2018-10-06T08:52:21.300Z,65
2018-10-06T08:53:20.783Z,65
2018-10-06T08:54:20.997Z,65
2018-10-06T08:55:20.987Z,65
2018-10-06T08:56:21.837Z,65
2018-10-06T08:57:20.438Z,65
2018-10-06T08:58:21.224Z,65
2018-10-06T08:59:20.938Z,65
2018-10-06T09:00:20.934Z,65
2018-10-06T09:01:20.649Z,70
2018-10-06T09:02:20.388Z,80
2018-10-06T09:03:20.899Z,70
2018-10-06T09:04:20.853Z,65
2018-10-06T09:05:21.136Z,65
2018-10-06T09:06:20.608Z,65
2018-10-06T09:07:20.327Z,65
2018-10-06T09:08:20.586Z,70
2018-10-06T09:09:20.567Z,65
2018-10-06T09:10:20.286Z,65
2018-10-06T09:11:20.282Z,65
2018-10-06T09:12:20.258Z,70
2018-10-06T09:13:20.244Z,70
2018-10-06T09:14:20.230Z,70
2018-10-06T09:15:20.747Z,70
2018-10-06T09:16:20.472Z,70
2018-10-06T09:17:20.732Z,70
2018-10-06T09:18:20.450Z,70
2018-10-06T09:19:20.705Z,70
2018-10-06T09:20:20.427Z,70
2018-10-06T09:21:20.688Z,70
2018-10-06T09:22:20.154Z,70
2018-10-06T09:23:20.396Z,70
2018-10-06T09:24:20.123Z,70
2018-10-06T09:25:20.376Z,70
2018-10-06T09:26:20.103Z,70
2018-10-06T09:27:20.366Z,70
2018-10-06T09:28:20.414Z,70
2018-10-06T09:29:20.862Z,70
2018-10-06T09:30:20.083Z,70
2018-10-06T09:31:20.574Z,70
2018-10-06T09:32:20.301Z,70
2018-10-06T09:33:19.760Z,70
2018-10-06T09:34:20.014Z,75
2018-10-06T09:35:20.264Z,75
2018-10-06T09:36:20.252Z,75
2018-10-06T09:37:20.766Z,70
2018-10-06T09:38:19.982Z,70
2018-10-06T09:39:20.492Z,70
2018-10-06T09:40:20.752Z,70
2018-10-06T09:41:20.521Z,70
2018-10-06T09:42:21.032Z,70
2018-10-06T09:43:20.183Z,70
2018-10-06T09:44:20.431Z,70
2018-10-06T09:45:20.178Z,70
2018-10-06T09:46:19.616Z,70
2018-10-06T09:47:19.876Z,70
2018-10-06T09:48:20.027Z,70
2018-10-06T09:49:20.384Z,70
2018-10-06T09:50:19.579Z,75
2018-10-06T09:51:20.097Z,75
2018-10-06T09:52:20.624Z,75
2018-10-06T09:53:20.335Z,75
2018-10-06T09:54:19.804Z,75
2018-10-06T09:55:19.786Z,75
2018-10-06T09:56:20.057Z,75
2018-10-06T09:57:20.297Z,75
2018-10-06T09:58:20.280Z,75
2018-10-06T09:59:19.505Z,75
2018-10-06T10:00:19.997Z,75
2018-10-06T10:01:20.251Z,75
2018-10-06T10:02:20.245Z,80
2018-10-06T10:03:19.708Z,75
2018-10-06T10:04:20.222Z,75
2018-10-06T10:05:20.354Z,80
2018-10-06T10:06:20.466Z,80
2018-10-06T10:07:20.292Z,85
2018-10-06T10:08:20.655Z,85
2018-10-06T10:09:19.645Z,85
2018-10-06T10:10:20.164Z,85
2018-10-06T10:11:20.165Z,85
2018-10-06T10:12:19.885Z,90
2018-10-06T10:13:20.134Z,90
2018-10-06T10:14:19.862Z,90
2018-10-06T10:15:19.677Z,90
2018-10-06T10:16:19.855Z,90
2018-10-06T10:17:20.462Z,90
2018-10-06T10:18:20.690Z,90
2018-10-06T10:19:20.349Z,85
2018-10-06T10:20:19.807Z,85
2018-10-06T10:21:20.333Z,85
2018-10-06T10:22:21.525Z,85
2018-10-06T10:23:20.156Z,85
2018-10-06T10:24:19.498Z,85
2018-10-06T10:25:20.013Z,85
2018-10-06T10:26:20.271Z,90
2018-10-06T10:27:19.733Z,110
2018-10-06T10:28:20.437Z,105
2018-10-06T10:29:19.452Z,90
2018-10-06T10:30:19.706Z,90
2018-10-06T10:31:19.709Z,100
2018-10-06T10:32:19.684Z,100
2018-10-06T10:33:20.258Z,120
2018-10-06T10:34:19.682Z,110
2018-10-06T10:35:19.932Z,110
2018-10-06T10:36:19.658Z,120
2018-10-06T10:37:19.818Z,175
2018-10-06T10:38:19.635Z,125
2018-10-06T10:39:19.530Z,110
2018-10-06T10:40:19.893Z,115
2018-10-06T10:41:19.862Z,105
2018-10-06T10:42:19.333Z,145
2018-10-06T10:43:20.117Z,170
2018-10-06T10:44:19.667Z,165
2018-10-06T10:45:19.320Z,120
2018-10-06T10:46:19.554Z,130
2018-10-06T10:47:19.288Z,130
2018-10-06T10:48:20.396Z,165
2018-10-06T10:49:19.536Z,170
2018-10-06T10:50:19.795Z,135
2018-10-06T10:51:19.782Z,125
2018-10-06T10:52:19.778Z,125
2018-10-06T10:53:19.778Z,150
2018-10-06T10:54:19.498Z,135
2018-10-06T10:55:19.489Z,130
2018-10-06T10:56:19.210Z,145
2018-10-06T10:57:19.470Z,140
2018-10-06T10:58:19.461Z,145
2018-10-06T10:59:19.460Z,140
2018-10-06T11:00:20.901Z,135
2018-10-06T11:01:19.327Z,135
2018-10-06T11:02:19.432Z,155
2018-10-06T11:03:19.691Z,165
2018-10-06T11:04:19.672Z,140
2018-10-06T11:05:19.145Z,140
2018-10-06T11:06:19.931Z,140
2018-10-06T11:07:19.649Z,145
2018-10-06T11:08:19.382Z,145
2018-10-06T11:09:19.114Z,195
2018-10-06T11:10:19.629Z,160
2018-10-06T11:11:20.066Z,145
2018-10-06T11:12:19.102Z,145
2018-10-06T11:13:19.341Z,145
2018-10-06T11:14:19.647Z,150
2018-10-06T11:15:19.892Z,150
2018-10-06T11:16:19.058Z,155
2018-10-06T11:17:20.276Z,160
2018-10-06T11:18:19.570Z,160
2018-10-06T11:19:19.292Z,175
2018-10-06T11:20:19.820Z,195
2018-10-06T11:21:19.284Z,195
2018-10-06T11:22:19.278Z,220
2018-10-06T11:23:19.531Z,175
2018-10-06T11:24:19.009Z,165
2018-10-06T11:25:19.530Z,165
2018-10-06T11:26:19.515Z,170
2018-10-06T11:27:19.239Z,170
2018-10-06T11:28:19.506Z,165
2018-10-06T11:29:19.487Z,165
2018-10-06T11:30:19.479Z,170
2018-10-06T11:31:19.475Z,185
2018-10-06T11:32:19.467Z,210
2018-10-06T11:33:19.478Z,205
2018-10-06T11:34:18.927Z,260
2018-10-06T11:35:19.441Z,185
2018-10-06T11:36:19.171Z,190
2018-10-06T11:37:19.381Z,190
2018-10-06T11:38:19.092Z,225
2018-10-06T11:39:19.148Z,235
2018-10-06T11:40:18.877Z,240
2018-10-06T11:41:19.134Z,290
2018-10-06T11:42:19.660Z,335
2018-10-06T11:43:19.388Z,310
2018-10-06T11:44:19.387Z,360
2018-10-06T11:45:19.108Z,370
2018-10-06T11:46:19.098Z,355
2018-10-06T11:47:19.356Z,335
2018-10-06T11:48:19.092Z,350
2018-10-06T11:49:19.102Z,365
2018-10-06T11:50:19.362Z,355
2018-10-06T11:51:19.090Z,495
2018-10-06T11:52:19.094Z,440
2018-10-06T11:53:19.077Z,485
2018-10-06T11:54:19.326Z,415
2018-10-06T11:55:19.579Z,410
2018-10-06T11:56:19.601Z,405
2018-10-06T11:57:19.318Z,385
2018-10-06T11:58:19.029Z,430
2018-10-06T11:59:19.300Z,540
2018-10-06T12:00:20.452Z,490
2018-10-06T12:01:18.746Z,480
2018-10-06T12:02:19.270Z,545
2018-10-06T12:03:19.004Z,665
2018-10-06T12:04:19.009Z,795
2018-10-06T12:05:18.734Z,805
2018-10-06T12:06:19.520Z,990
2018-10-06T12:07:18.996Z,1080
2018-10-06T12:08:18.724Z,1075
2018-10-06T12:09:18.981Z,1135
2018-10-06T12:10:18.976Z,1155
2018-10-06T12:11:19.235Z,1100
2018-10-06T12:12:18.704Z,1125
2018-10-06T12:13:18.970Z,1115
2018-10-06T12:14:18.973Z,1105
2018-10-06T12:15:18.713Z,1120
2018-10-06T12:16:18.963Z,1100
2018-10-06T12:17:19.015Z,1010
2018-10-06T12:18:19.493Z,965
2018-10-06T12:19:18.699Z,940
2018-10-06T12:20:18.966Z,1035
2018-10-06T12:21:19.229Z,1060
2018-10-06T12:22:19.496Z,1065
2018-10-06T12:23:19.226Z,990
2018-10-06T12:24:18.701Z,910
2018-10-06T12:25:19.499Z,910
2018-10-06T12:26:18.915Z,885
2018-10-06T12:27:19.366Z,900
2018-10-06T12:28:19.243Z,935
2018-10-06T12:29:18.989Z,985
2018-10-06T12:30:18.442Z,995
2018-10-06T12:31:18.994Z,975
2018-10-06T12:32:19.251Z,1000
2018-10-06T12:33:18.708Z,1015
2018-10-06T12:34:19.245Z,1080
2018-10-06T12:35:20.252Z,1055
2018-10-06T12:36:19.246Z,1050
2018-10-06T12:37:18.970Z,1030
2018-10-06T12:38:19.258Z,1005
2018-10-06T12:39:18.980Z,1055
2018-10-06T12:40:19.249Z,1025
2018-10-06T12:41:18.975Z,1015
2018-10-06T12:42:19.476Z,985
2018-10-06T12:43:19.242Z,1025
2018-10-06T12:44:19.537Z,960
2018-10-06T12:45:19.520Z,965
2018-10-06T12:46:18.719Z,980
2018-10-06T12:47:19.275Z,985
2018-10-06T12:48:19.006Z,965
2018-10-06T12:49:19.262Z,965
2018-10-06T12:50:18.998Z,975
2018-10-06T12:51:19.376Z,1025
2018-10-06T12:52:19.270Z,960
2018-10-06T12:53:18.743Z,965
2018-10-06T12:54:19.277Z,915
2018-10-06T12:55:19.541Z,990
2018-10-06T12:56:19.286Z,990
2018-10-06T12:57:19.547Z,940
2018-10-06T12:58:19.020Z,895
2018-10-06T12:59:19.286Z,815
2018-10-06T13:00:19.517Z,815
2018-10-06T13:01:19.058Z,830
2018-10-06T13:02:19.302Z,865
2018-10-06T13:03:18.775Z,890
2018-10-06T13:04:19.032Z,930
2018-10-06T13:05:19.574Z,920
2018-10-06T13:06:19.355Z,885
2018-10-06T13:07:19.111Z,840
2018-10-06T13:08:19.059Z,865
2018-10-06T13:09:19.050Z,865
2018-10-06T13:10:19.367Z,870
2018-10-06T13:11:19.064Z,860
2018-10-06T13:12:18.797Z,865
2018-10-06T13:13:19.081Z,880
2018-10-06T13:14:18.812Z,930
2018-10-06T13:15:18.804Z,915
2018-10-06T13:16:18.568Z,940
2018-10-06T13:17:19.084Z,935
2018-10-06T13:18:18.810Z,940
2018-10-06T13:19:19.089Z,935
2018-10-06T13:20:19.348Z,950
2018-10-06T13:21:19.619Z,965
2018-10-06T13:22:19.085Z,930
2018-10-06T13:23:19.663Z,910
2018-10-06T13:24:18.570Z,920
2018-10-06T13:25:19.087Z,920
2018-10-06T13:26:18.880Z,890
2018-10-06T13:27:18.832Z,870
2018-10-06T13:28:19.631Z,820
2018-10-06T13:29:18.845Z,780
2018-10-06T13:30:19.368Z,820
2018-10-06T13:31:19.637Z,825
2018-10-06T13:32:19.118Z,785
2018-10-06T13:33:18.841Z,800
2018-10-06T13:34:19.115Z,775
2018-10-06T13:35:19.119Z,690
2018-10-06T13:36:19.380Z,670
2018-10-06T13:37:19.637Z,680
2018-10-06T13:38:19.122Z,695
2018-10-06T13:39:19.384Z,690
2018-10-06T13:40:19.380Z,665
2018-10-06T13:41:19.394Z,635
2018-10-06T13:42:19.653Z,625
2018-10-06T13:43:19.664Z,685
2018-10-06T13:44:19.127Z,700
2018-10-06T13:45:18.862Z,660
2018-10-06T13:46:19.742Z,620
2018-10-06T13:47:18.861Z,645
2018-10-06T13:48:19.125Z,610
2018-10-06T13:49:19.400Z,625
2018-10-06T13:50:19.394Z,605
2018-10-06T13:51:19.133Z,595
2018-10-06T13:52:19.403Z,590
2018-10-06T13:53:19.139Z,610
2018-10-06T13:54:19.140Z,655
2018-10-06T13:55:19.425Z,635
2018-10-06T13:56:19.148Z,670
2018-10-06T13:57:18.883Z,700
2018-10-06T13:58:19.795Z,740
2018-10-06T13:59:19.683Z,630
2018-10-06T14:00:19.411Z,610
2018-10-06T14:01:19.149Z,595
2018-10-06T14:02:19.417Z,585
2018-10-06T14:03:19.419Z,645
2018-10-06T14:04:19.408Z,595
2018-10-06T14:05:19.154Z,595
2018-10-06T14:06:19.146Z,590
2018-10-06T14:07:19.155Z,570
2018-10-06T14:08:19.153Z,500
2018-10-06T14:09:19.415Z,540
2018-10-06T14:10:19.145Z,525
2018-10-06T14:11:19.414Z,535
2018-10-06T14:12:19.695Z,545
2018-10-06T14:13:19.425Z,525
2018-10-06T14:14:19.156Z,500
2018-10-06T14:15:19.416Z,465
2018-10-06T14:16:18.890Z,435
2018-10-06T14:17:19.416Z,475
2018-10-06T14:18:18.888Z,470